createdAt,value
2019-02-10T00:00:23.065Z,16.02
2019-02-10T00:05:31.874Z,15.65
2019-02-10T00:10:39.985Z,16.36
2019-02-10T00:15:48.049Z,16.03
2019-02-10T00:20:56.136Z,15.45
2019-02-10T00:26:04.439Z,14.33
2019-02-10T00:31:13.212Z,14.72
2019-02-10T00:36:21.165Z,16.91
2019-02-10T00:41:29.224Z,16.60
2019-02-10T00:46:37.592Z,16.18
2019-02-10T00:51:45.885Z,15.19
2019-02-10T00:56:54.486Z,14.98
2019-02-10T01:02:02.639Z,15.51
2019-02-10T01:07:11.361Z,17.47
2019-02-10T01:12:19.510Z,14.66
2019-02-10T01:17:27.901Z,19.13
2019-02-10T01:22:36.001Z,18.93
2019-02-10T01:27:44.997Z,15.13
2019-02-10T01:32:53.616Z,16.07
2019-02-10T01:38:02.769Z,20.57
2019-02-10T01:43:11.069Z,17.83
2019-02-10T01:48:19.173Z,14.79
2019-02-10T01:53:27.289Z,14.13
2019-02-10T01:58:35.405Z,16.49
2019-02-10T02:03:43.549Z,14.05
2019-02-10T02:08:51.677Z,16.60
2019-02-10T02:13:59.853Z,14.45
2019-02-10T02:19:08.041Z,17.04
2019-02-10T02:24:16.147Z,13.90
2019-02-10T02:29:24.329Z,15.14
2019-02-10T02:34:32.462Z,16.14
2019-02-10T02:39:40.665Z,15.60
2019-02-10T02:44:48.700Z,18.46
2019-02-10T02:49:56.894Z,15.88
2019-02-10T02:55:05.014Z,16.98
2019-02-10T03:00:13.138Z,16.30
2019-02-10T03:05:21.282Z,17.69
2019-02-10T03:10:29.342Z,17.57
2019-02-10T03:15:37.539Z,18.03
2019-02-10T03:20:45.761Z,14.72
2019-02-10T03:25:53.925Z,14.20
2019-02-10T03:31:02.303Z,15.32
2019-02-10T03:36:10.448Z,16.77
2019-02-10T03:41:18.465Z,16.23
2019-02-10T03:46:26.660Z,15.12
2019-02-10T03:51:34.857Z,17.12
2019-02-10T03:56:43.035Z,14.74
2019-02-10T04:01:51.180Z,13.48
2019-02-10T04:06:59.374Z,11.80
2019-02-10T04:12:07.486Z,12.75
2019-02-10T04:17:15.565Z,15.07
2019-02-10T04:22:23.760Z,15.92
2019-02-10T04:27:32.056Z,13.70
2019-02-10T04:32:40.216Z,12.06
2019-02-10T04:37:48.318Z,13.48
2019-02-10T04:42:56.464Z,16.94
2019-02-10T04:48:04.538Z,16.15
2019-02-10T04:53:12.688Z,14.57
2019-02-10T04:58:20.848Z,13.82
2019-02-10T05:03:29.049Z,16.90
2019-02-10T05:08:37.180Z,11.86
2019-02-10T05:13:45.288Z,12.57
2019-02-10T05:18:53.447Z,14.04
2019-02-10T05:24:03.464Z,10.05
2019-02-10T05:29:09.060Z,14.86
2019-02-10T05:34:17.439Z,11.30
2019-02-10T05:39:26.054Z,7.98
2019-02-10T05:44:34.241Z,13.81
2019-02-10T05:49:42.592Z,12.16
2019-02-10T05:54:50.643Z,15.11
2019-02-10T05:59:58.711Z,12.97
2019-02-10T06:05:06.904Z,10.61
2019-02-10T06:10:15.084Z,12.07
2019-02-10T06:15:23.212Z,12.47
2019-02-10T06:20:31.362Z,13.63
2019-02-10T06:25:39.592Z,12.65
2019-02-10T06:30:47.661Z,12.25
2019-02-10T06:35:55.821Z,13.50
2019-02-10T06:41:03.956Z,12.15
2019-02-10T06:46:12.101Z,10.94
2019-02-10T06:51:20.301Z,13.18
2019-02-10T06:56:28.357Z,15.55
2019-02-10T07:01:37.588Z,12.62
2019-02-10T07:06:45.604Z,14.54
2019-02-10T07:11:53.951Z,13.06
2019-02-10T07:17:02.188Z,14.89
2019-02-10T07:22:10.472Z,12.98
2019-02-10T07:27:18.539Z,12.40
2019-02-10T07:32:26.719Z,12.67
2019-02-10T07:37:34.866Z,17.60
2019-02-10T07:42:42.985Z,13.83
2019-02-10T07:47:51.138Z,10.99
2019-02-10T07:52:59.293Z,10.02
2019-02-10T07:58:07.445Z,10.73
2019-02-10T08:03:15.602Z,14.56
2019-02-10T08:08:23.796Z,13.91
2019-02-10T08:13:33.176Z,15.02
2019-02-10T08:18:39.539Z,11.31
2019-02-10T08:23:47.680Z,10.67
2019-02-10T08:28:55.920Z,13.54
2019-02-10T08:34:04.021Z,10.64
2019-02-10T08:39:12.181Z,15.16
2019-02-10T08:44:20.357Z,10.64
2019-02-10T08:49:28.508Z,10.99
2019-02-10T08:54:36.748Z,8.95
2019-02-10T08:59:44.764Z,11.94
2019-02-10T09:04:52.784Z,9.36
2019-02-10T09:10:00.441Z,8.65
2019-02-10T09:15:08.892Z,10.01
2019-02-10T09:20:16.913Z,9.85
2019-02-10T09:25:24.963Z,13.40
2019-02-10T09:30:33.025Z,10.84
2019-02-10T09:35:41.205Z,11.14
2019-02-10T09:40:49.262Z,13.54
2019-02-10T09:45:57.657Z,14.24
2019-02-10T09:51:05.901Z,11.63
2019-02-10T09:56:13.939Z,12.96
2019-02-10T10:01:22.088Z,9.70
2019-02-10T10:06:30.167Z,12.74
2019-02-10T10:11:38.246Z,11.69
2019-02-10T10:16:46.405Z,10.26
2019-02-10T10:21:54.510Z,11.04
2019-02-10T10:27:02.640Z,10.05
2019-02-10T10:32:10.748Z,13.67
2019-02-10T10:37:18.915Z,15.01
2019-02-10T10:42:26.981Z,9.06
2019-02-10T10:47:35.165Z,14.03
2019-02-10T10:52:43.205Z,9.52
2019-02-10T10:57:51.389Z,11.46
2019-02-10T11:02:59.408Z,12.43
2019-02-10T11:08:07.612Z,11.50
2019-02-10T11:13:15.785Z,13.28
2019-02-10T11:18:24.134Z,16.77
2019-02-10T11:23:32.329Z,12.61
2019-02-10T11:28:40.365Z,11.56
2019-02-10T11:33:48.569Z,12.13
2019-02-10T11:38:56.769Z,9.59
2019-02-10T11:44:05.397Z,9.60
2019-02-10T11:49:14.322Z,11.99
2019-02-10T11:54:22.592Z,9.70
2019-02-10T11:59:30.773Z,10.34
2019-02-10T12:04:32.721Z,13.31
2019-02-10T12:09:40.710Z,13.57
2019-02-10T12:14:48.747Z,14.42
2019-02-10T12:19:56.877Z,12.51
2019-02-10T12:25:04.897Z,12.60
2019-02-10T12:30:12.920Z,11.75
2019-02-10T12:35:21.666Z,13.25
2019-02-10T12:40:28.409Z,13.92
2019-02-10T12:45:36.424Z,11.30
2019-02-10T12:50:44.457Z,14.27
2019-02-10T12:55:52.635Z,11.73
2019-02-10T13:01:00.720Z,12.41
2019-02-10T13:06:08.883Z,11.11
2019-02-10T13:11:18.718Z,12.53
2019-02-10T13:16:27.037Z,13.93
2019-02-10T13:21:35.148Z,14.37
2019-02-10T13:26:43.117Z,14.24
2019-02-10T13:31:51.112Z,15.48
2019-02-10T13:36:59.449Z,16.26
2019-02-10T13:42:07.473Z,16.11
2019-02-10T13:47:15.821Z,12.90
2019-02-10T13:52:23.852Z,12.47
2019-02-10T13:57:31.923Z,9.54
2019-02-10T14:02:40.004Z,8.21
2019-02-10T14:07:48.246Z,8.22
2019-02-10T14:12:56.349Z,6.13
2019-02-10T14:18:04.469Z,6.72
2019-02-10T14:23:12.547Z,5.14
2019-02-10T14:28:20.611Z,4.96
2019-02-10T14:33:29.899Z,6.13
2019-02-10T14:38:38.199Z,5.18
2019-02-10T14:43:46.365Z,5.80
2019-02-10T14:48:54.459Z,5.61
2019-02-10T14:54:03.291Z,5.95
2019-02-10T14:59:11.341Z,7.76
2019-02-10T15:04:19.872Z,8.00
2019-02-10T15:09:27.952Z,7.52
2019-02-10T15:14:36.692Z,7.90
2019-02-10T15:19:45.463Z,7.78
2019-02-10T15:24:53.533Z,8.28
2019-02-10T15:30:02.294Z,8.61
2019-02-10T15:35:10.336Z,8.41
2019-02-10T15:40:18.495Z,6.48
2019-02-10T15:45:26.573Z,7.07
2019-02-10T15:50:34.709Z,7.09
2019-02-10T15:55:42.750Z,7.32
2019-02-10T16:00:50.777Z,6.52
2019-02-10T16:05:58.881Z,6.67
2019-02-10T16:11:07.022Z,7.90
2019-02-10T16:16:15.353Z,9.35
2019-02-10T16:21:23.464Z,8.44
2019-02-10T16:26:31.577Z,8.75
2019-02-10T16:31:39.646Z,8.56
2019-02-10T16:36:47.650Z,10.33
2019-02-10T16:41:55.736Z,9.54
2019-02-10T16:47:04.174Z,9.15
2019-02-10T16:52:12.376Z,7.90
2019-02-10T16:57:20.445Z,8.80
2019-02-10T17:02:28.616Z,7.96
2019-02-10T17:07:37.053Z,7.34
2019-02-10T17:12:45.628Z,8.31
2019-02-10T17:17:53.837Z,10.10
2019-02-10T17:23:02.397Z,7.66
2019-02-10T17:28:10.831Z,8.91
2019-02-10T17:33:19.392Z,8.08
2019-02-10T17:38:27.497Z,7.04
2019-02-10T17:43:35.605Z,7.07
2019-02-10T17:48:43.693Z,6.96
2019-02-10T17:53:51.909Z,6.06
2019-02-10T17:59:00.062Z,6.12
2019-02-10T18:04:08.421Z,5.97
2019-02-10T18:09:17.204Z,3.95
2019-02-10T18:14:26.842Z,4.35
2019-02-10T18:19:34.921Z,4.30
2019-02-10T18:24:43.044Z,4.49
2019-02-10T18:29:51.430Z,3.87
2019-02-10T18:34:59.566Z,4.05
2019-02-10T18:40:07.886Z,4.46
2019-02-10T18:45:16.500Z,4.70
2019-02-10T18:50:24.637Z,5.67
2019-02-10T18:55:32.993Z,6.13
2019-02-10T19:00:41.133Z,6.01
2019-02-10T19:05:49.441Z,5.36
2019-02-10T19:10:58.452Z,4.61
2019-02-10T19:16:07.063Z,5.94
2019-02-10T19:21:15.281Z,6.41
2019-02-10T19:26:23.846Z,8.77
2019-02-10T19:31:31.965Z,7.62
2019-02-10T19:36:41.258Z,8.11
2019-02-10T19:41:55.454Z,7.14
2019-02-10T19:46:57.586Z,8.70
2019-02-10T19:52:05.966Z,10.92
2019-02-10T19:57:14.472Z,11.57
2019-02-10T20:02:22.818Z,13.44
2019-02-10T20:07:31.039Z,3.74
2019-02-10T20:12:39.173Z,2.78
2019-02-10T20:17:49.393Z,2.04
2019-02-10T20:22:55.497Z,2.63
2019-02-10T20:28:04.029Z,2.63
2019-02-10T20:33:12.655Z,2.42
2019-02-10T20:38:20.805Z,2.33
2019-02-10T20:43:28.925Z,2.71
2019-02-10T20:48:37.146Z,2.05
2019-02-10T20:53:45.527Z,2.02
2019-02-10T20:58:53.698Z,3.21
2019-02-10T21:04:02.112Z,3.85
2019-02-10T21:09:10.316Z,2.09
2019-02-10T21:14:18.345Z,2.29
2019-02-10T21:19:26.461Z,2.44
2019-02-10T21:24:34.565Z,3.02
2019-02-10T21:29:42.824Z,3.54
2019-02-10T21:34:51.282Z,3.79
2019-02-10T21:40:00.158Z,4.43
2019-02-10T21:45:08.277Z,5.23
2019-02-10T21:50:16.385Z,6.37
2019-02-10T21:55:24.532Z,5.51
2019-02-10T22:00:32.776Z,5.63
2019-02-10T22:05:40.879Z,5.90
2019-02-10T22:10:49.001Z,5.95
2019-02-10T22:15:57.012Z,7.60
2019-02-10T22:21:05.171Z,7.12
2019-02-10T22:26:13.224Z,7.85
2019-02-10T22:31:21.441Z,9.69
2019-02-10T22:36:29.802Z,13.23
2019-02-10T22:41:38.150Z,16.76
2019-02-10T22:46:46.243Z,22.63
2019-02-10T22:51:54.464Z,24.46
2019-02-10T22:57:02.690Z,26.25
2019-02-10T23:02:10.785Z,31.93
2019-02-10T23:07:19.272Z,28.27
2019-02-10T23:12:27.477Z,30.51
2019-02-10T23:17:35.700Z,26.10
2019-02-10T23:22:43.940Z,27.87
2019-02-10T23:27:52.170Z,27.07
2019-02-10T23:33:00.365Z,24.60
2019-02-10T23:38:08.556Z,22.75
2019-02-10T23:43:16.940Z,21.83
2019-02-10T23:48:25.112Z,20.65
2019-02-10T23:53:33.373Z,22.05
2019-02-10T23:58:41.488Z,19.79
